RYR75C GCTS-EGGD
Flight info
| Callsign | RYR75C |
|---|---|
| Flight time | N/A |
| Altitude | 36000 |
| Route | KONBA UN866 BEXAL DCT DEMOS DCT KORUL DCT KOLEK DCT EBOMO DCT RUSIB DCT NOZHU/N0387F290 DCT SHIRI DCT TOJAQ |
| Aircraft | B738/M-SDE2E3FGHIRWXY/LB1 |
Departure
| Time | N/A |
|---|---|
| Airport | Tenerife Sur Airport (GCTS) |
Arrival
| Time | 2026-05-05 19:22 |
|---|---|
| Airport | Bristol Airport (EGGD) |
| Time | Latitude | Longitude | Altitude | Speed | Heading |
|---|---|---|---|---|---|
| 2026-05-05 17:16 | 37.73617 | -10.86570 | 38133 ft | 471 kts | 9° |
| 2026-05-05 17:16 | 37.76781 | -10.85503 | 38127 ft | 471 kts | 9° |
| 2026-05-05 17:17 | 37.83110 | -10.83365 | 38127 ft | 470 kts | 9° |
| 2026-05-05 17:17 | 37.89430 | -10.81226 | 38120 ft | 470 kts | 9° |
| 2026-05-05 17:18 | 37.95746 | -10.79085 | 38126 ft | 470 kts | 9° |
| 2026-05-05 17:18 | 38.02061 | -10.76941 | 38126 ft | 470 kts | 10° |
| 2026-05-05 17:19 | 38.08329 | -10.74809 | 38128 ft | 470 kts | 10° |
| 2026-05-05 17:19 | 38.14638 | -10.72659 | 38131 ft | 470 kts | 10° |
| 2026-05-05 17:20 | 38.20950 | -10.70504 | 38122 ft | 470 kts | 10° |
| 2026-05-05 17:20 | 38.27276 | -10.68341 | 38122 ft | 470 kts | 10° |
| 2026-05-05 17:21 | 38.33595 | -10.66176 | 38120 ft | 470 kts | 10° |
| 2026-05-05 17:22 | 38.43077 | -10.62919 | 38137 ft | 471 kts | 10° |
| 2026-05-05 17:22 | 38.49401 | -10.60743 | 38122 ft | 471 kts | 10° |
| 2026-05-05 17:23 | 38.55728 | -10.58561 | 38114 ft | 471 kts | 10° |
| 2026-05-05 17:23 | 38.62054 | -10.56376 | 38121 ft | 471 kts | 10° |
| 2026-05-05 17:24 | 38.68379 | -10.54187 | 38120 ft | 471 kts | 10° |
| 2026-05-05 17:24 | 38.74708 | -10.51993 | 38113 ft | 471 kts | 10° |
| 2026-05-05 17:25 | 38.81036 | -10.49794 | 38118 ft | 471 kts | 10° |
| 2026-05-05 17:25 | 38.87359 | -10.47594 | 38117 ft | 471 kts | 10° |
| 2026-05-05 17:26 | 38.93683 | -10.45389 | 38115 ft | 471 kts | 10° |
| 2026-05-05 17:26 | 39.00000 | -10.43183 | 38114 ft | 471 kts | 10° |
| 2026-05-05 17:27 | 39.06317 | -10.40972 | 38113 ft | 470 kts | 10° |
| 2026-05-05 17:27 | 39.12628 | -10.38760 | 38136 ft | 470 kts | 10° |
| 2026-05-05 17:28 | 39.17869 | -10.36919 | 38118 ft | 470 kts | 10° |
| 2026-05-05 17:28 | 39.24173 | -10.34702 | 38112 ft | 469 kts | 10° |
| 2026-05-05 17:29 | 39.30470 | -10.32483 | 38105 ft | 469 kts | 10° |
| 2026-05-05 17:29 | 39.36761 | -10.30262 | 38129 ft | 468 kts | 10° |
| 2026-05-05 17:30 | 39.43048 | -10.28038 | 38115 ft | 468 kts | 10° |
| 2026-05-05 17:30 | 39.49328 | -10.25812 | 38109 ft | 468 kts | 10° |
| 2026-05-05 17:31 | 39.55603 | -10.23584 | 38111 ft | 468 kts | 11° |
| 2026-05-05 17:31 | 39.61879 | -10.21351 | 38112 ft | 467 kts | 11° |
| 2026-05-05 17:32 | 39.68147 | -10.19117 | 38116 ft | 467 kts | 10° |
| 2026-05-05 17:32 | 39.74369 | -10.16896 | 38109 ft | 467 kts | 10° |
| 2026-05-05 17:33 | 39.80629 | -10.14656 | 38111 ft | 466 kts | 10° |
| 2026-05-05 17:33 | 39.86889 | -10.12413 | 38111 ft | 466 kts | 11° |
| 2026-05-05 17:34 | 39.93140 | -10.10167 | 38105 ft | 466 kts | 11° |
| 2026-05-05 17:34 | 39.99385 | -10.07920 | 38107 ft | 465 kts | 11° |
| 2026-05-05 17:35 | 40.05624 | -10.05671 | 38124 ft | 465 kts | 11° |
| 2026-05-05 17:35 | 40.11859 | -10.03420 | 38107 ft | 465 kts | 11° |
| 2026-05-05 17:36 | 40.18091 | -10.01165 | 38104 ft | 464 kts | 11° |
| 2026-05-05 17:36 | 40.24314 | -9.98909 | 38107 ft | 464 kts | 11° |
| 2026-05-05 17:37 | 40.30535 | -9.96649 | 38100 ft | 464 kts | 11° |
| 2026-05-05 17:37 | 40.36751 | -9.94387 | 38096 ft | 464 kts | 11° |
| 2026-05-05 17:38 | 40.42966 | -9.92121 | 38105 ft | 463 kts | 11° |
| 2026-05-05 17:38 | 40.49180 | -9.89851 | 38124 ft | 464 kts | 11° |
| 2026-05-05 17:39 | 40.55398 | -9.87575 | 38100 ft | 464 kts | 11° |
| 2026-05-05 17:39 | 40.61618 | -9.85294 | 38098 ft | 464 kts | 11° |
| 2026-05-05 17:40 | 40.67835 | -9.83009 | 38110 ft | 464 kts | 11° |
| 2026-05-05 17:40 | 40.74055 | -9.80720 | 38108 ft | 464 kts | 11° |
| 2026-05-05 17:41 | 40.80271 | -9.78427 | 38111 ft | 464 kts | 11° |
| 2026-05-05 17:41 | 40.86487 | -9.76129 | 38096 ft | 464 kts | 11° |
| 2026-05-05 17:42 | 40.92700 | -9.73828 | 38096 ft | 463 kts | 11° |
| 2026-05-05 17:42 | 40.98909 | -9.71525 | 38092 ft | 463 kts | 11° |
| 2026-05-05 17:43 | 41.05113 | -9.69218 | 38094 ft | 463 kts | 11° |
| 2026-05-05 17:43 | 41.11308 | -9.66911 | 38085 ft | 462 kts | 11° |
| 2026-05-05 17:44 | 41.17457 | -9.64616 | 38103 ft | 462 kts | 12° |
| 2026-05-05 17:44 | 41.23641 | -9.62303 | 38087 ft | 462 kts | 12° |
| 2026-05-05 17:45 | 41.29822 | -9.59987 | 38088 ft | 461 kts | 12° |
| 2026-05-05 17:45 | 41.35996 | -9.57670 | 38087 ft | 461 kts | 12° |
| 2026-05-05 17:46 | 41.42167 | -9.55348 | 38088 ft | 461 kts | 12° |
| 2026-05-05 17:46 | 41.48331 | -9.53024 | 38084 ft | 460 kts | 12° |
| 2026-05-05 17:47 | 41.54488 | -9.50699 | 38087 ft | 460 kts | 12° |
| 2026-05-05 17:47 | 41.60641 | -9.48371 | 38098 ft | 459 kts | 12° |
| 2026-05-05 17:48 | 41.66786 | -9.46040 | 38098 ft | 459 kts | 12° |
| 2026-05-05 17:48 | 41.72927 | -9.43708 | 38083 ft | 459 kts | 12° |
| 2026-05-05 17:49 | 41.79067 | -9.41370 | 38081 ft | 458 kts | 12° |
| 2026-05-05 17:49 | 41.85200 | -9.39030 | 38091 ft | 458 kts | 12° |
| 2026-05-05 17:50 | 41.91323 | -9.36664 | 38075 ft | 459 kts | 14° |
| 2026-05-05 17:50 | 41.94288 | -9.35024 | 38061 ft | 464 kts | 25° |
| 2026-05-05 17:50 | 41.97092 | -9.32870 | 38089 ft | 465 kts | 27° |
| 2026-05-05 17:51 | 42.02629 | -9.28367 | 38078 ft | 465 kts | 27° |
| 2026-05-05 17:51 | 42.08161 | -9.23857 | 38076 ft | 465 kts | 27° |
| 2026-05-05 17:52 | 42.13711 | -9.19386 | 38077 ft | 465 kts | 27° |
| 2026-05-05 17:52 | 42.19265 | -9.14936 | 38070 ft | 464 kts | 27° |
| 2026-05-05 17:53 | 42.24820 | -9.10484 | 38070 ft | 464 kts | 27° |
| 2026-05-05 17:53 | 42.30371 | -9.06024 | 38073 ft | 464 kts | 27° |
| 2026-05-05 17:54 | 42.35916 | -9.01558 | 38068 ft | 464 kts | 27° |
| 2026-05-05 17:54 | 42.41418 | -8.97117 | 38066 ft | 463 kts | 27° |
| 2026-05-05 17:55 | 42.46950 | -8.92642 | 38069 ft | 463 kts | 27° |
| 2026-05-05 17:55 | 42.52476 | -8.88163 | 38065 ft | 463 kts | 27° |
| 2026-05-05 17:56 | 42.58001 | -8.83675 | 38065 ft | 463 kts | 27° |
| 2026-05-05 17:56 | 42.63521 | -8.79182 | 38067 ft | 463 kts | 27° |
| 2026-05-05 17:57 | 42.69041 | -8.74680 | 38079 ft | 463 kts | 27° |
| 2026-05-05 17:57 | 42.74557 | -8.70172 | 38086 ft | 463 kts | 27° |
| 2026-05-05 17:58 | 42.80075 | -8.65652 | 38067 ft | 463 kts | 27° |
| 2026-05-05 17:58 | 42.85584 | -8.61129 | 38077 ft | 462 kts | 27° |
| 2026-05-05 17:59 | 42.91093 | -8.56598 | 38084 ft | 462 kts | 27° |
| 2026-05-05 17:59 | 42.96589 | -8.52067 | 38072 ft | 462 kts | 27° |
| 2026-05-05 18:00 | 43.02084 | -8.47529 | 38074 ft | 461 kts | 27° |
| 2026-05-05 18:00 | 43.07568 | -8.42989 | 38077 ft | 461 kts | 27° |
| 2026-05-05 18:01 | 43.13046 | -8.38445 | 38085 ft | 461 kts | 27° |
| 2026-05-05 18:01 | 43.18526 | -8.33890 | 38095 ft | 460 kts | 27° |
| 2026-05-05 18:02 | 43.24001 | -8.29329 | 38087 ft | 460 kts | 27° |
| 2026-05-05 18:02 | 43.29439 | -8.24789 | 38075 ft | 461 kts | 27° |
| 2026-05-05 18:03 | 43.34909 | -8.20213 | 38097 ft | 460 kts | 28° |
| 2026-05-05 18:03 | 43.40374 | -8.15631 | 38081 ft | 460 kts | 28° |
| 2026-05-05 18:04 | 43.45828 | -8.11048 | 38064 ft | 459 kts | 28° |
| 2026-05-05 18:04 | 43.51275 | -8.06461 | 38076 ft | 459 kts | 28° |
| 2026-05-05 18:05 | 43.56720 | -8.01868 | 38073 ft | 459 kts | 28° |
| 2026-05-05 18:05 | 43.62155 | -7.97272 | 38064 ft | 458 kts | 28° |
| 2026-05-05 18:06 | 43.67587 | -7.92669 | 38068 ft | 458 kts | 28° |
| 2026-05-05 18:06 | 43.73011 | -7.88062 | 38061 ft | 457 kts | 28° |
| 2026-05-05 18:07 | 43.78428 | -7.83452 | 38067 ft | 457 kts | 28° |
| 2026-05-05 18:07 | 43.83842 | -7.78835 | 38062 ft | 457 kts | 28° |
| 2026-05-05 18:08 | 43.89250 | -7.74212 | 38055 ft | 457 kts | 28° |
| 2026-05-05 18:08 | 43.94656 | -7.69582 | 38064 ft | 456 kts | 28° |
| 2026-05-05 18:09 | 44.00055 | -7.64947 | 38068 ft | 456 kts | 29° |
| 2026-05-05 18:09 | 44.05452 | -7.60304 | 38074 ft | 456 kts | 29° |
| 2026-05-05 18:10 | 44.10852 | -7.55648 | 38048 ft | 457 kts | 29° |
| 2026-05-05 18:10 | 44.16252 | -7.50982 | 38050 ft | 457 kts | 29° |
| 2026-05-05 18:11 | 44.21658 | -7.46301 | 38054 ft | 458 kts | 29° |
| 2026-05-05 18:11 | 44.27068 | -7.41606 | 38046 ft | 458 kts | 29° |
| 2026-05-05 18:12 | 44.32441 | -7.36932 | 38044 ft | 458 kts | 29° |
| 2026-05-05 18:12 | 44.37848 | -7.32219 | 38043 ft | 458 kts | 29° |
| 2026-05-05 18:13 | 44.43290 | -7.27464 | 38047 ft | 458 kts | 30° |
| 2026-05-05 18:13 | 44.48691 | -7.22736 | 38042 ft | 458 kts | 30° |
| 2026-05-05 18:14 | 44.54051 | -7.18032 | 38043 ft | 458 kts | 30° |
| 2026-05-05 18:14 | 44.59450 | -7.13284 | 38044 ft | 458 kts | 30° |
| 2026-05-05 18:15 | 44.64847 | -7.08527 | 38035 ft | 458 kts | 30° |
| 2026-05-05 18:15 | 44.70240 | -7.03762 | 38040 ft | 458 kts | 30° |
| 2026-05-05 18:16 | 44.75635 | -6.98986 | 38034 ft | 458 kts | 30° |
| 2026-05-05 18:16 | 44.80117 | -6.95009 | 38042 ft | 458 kts | 30° |
| 2026-05-05 18:17 | 44.85515 | -6.90250 | 38031 ft | 457 kts | 28° |
| 2026-05-05 18:17 | 44.91009 | -6.85730 | 38041 ft | 457 kts | 27° |
| 2026-05-05 18:18 | 44.96526 | -6.81263 | 38030 ft | 457 kts | 28° |
| 2026-05-05 18:18 | 45.02033 | -6.76760 | 38036 ft | 458 kts | 28° |
| 2026-05-05 18:19 | 45.07535 | -6.72222 | 38027 ft | 458 kts | 28° |
| 2026-05-05 18:19 | 45.13030 | -6.67668 | 38027 ft | 458 kts | 28° |
| 2026-05-05 18:20 | 45.18526 | -6.63104 | 38025 ft | 458 kts | 28° |
| 2026-05-05 18:20 | 45.24018 | -6.58534 | 38022 ft | 458 kts | 28° |
| 2026-05-05 18:21 | 45.29509 | -6.53954 | 38025 ft | 458 kts | 28° |
| 2026-05-05 18:21 | 45.34999 | -6.49365 | 38018 ft | 458 kts | 28° |
| 2026-05-05 18:22 | 45.40489 | -6.44766 | 38020 ft | 458 kts | 28° |
| 2026-05-05 18:22 | 45.45975 | -6.40159 | 38018 ft | 457 kts | 29° |
| 2026-05-05 18:23 | 45.51455 | -6.35547 | 38018 ft | 457 kts | 28° |
| 2026-05-05 18:23 | 45.56930 | -6.30929 | 38014 ft | 457 kts | 29° |
| 2026-05-05 18:24 | 45.62400 | -6.26304 | 38019 ft | 457 kts | 29° |
| 2026-05-05 18:24 | 45.67864 | -6.21675 | 38015 ft | 457 kts | 29° |
| 2026-05-05 18:25 | 45.73327 | -6.17037 | 38009 ft | 457 kts | 29° |
| 2026-05-05 18:25 | 45.78749 | -6.12421 | 38002 ft | 456 kts | 30° |
| 2026-05-05 18:26 | 45.84201 | -6.07765 | 38006 ft | 456 kts | 30° |
| 2026-05-05 18:26 | 45.89647 | -6.03106 | 38002 ft | 456 kts | 30° |
| 2026-05-05 18:27 | 45.95086 | -5.98444 | 37999 ft | 455 kts | 30° |
| 2026-05-05 18:27 | 46.00520 | -5.93774 | 38010 ft | 455 kts | 29° |
| 2026-05-05 18:28 | 46.08662 | -5.86758 | 37994 ft | 454 kts | 30° |
| 2026-05-05 18:28 | 46.14083 | -5.82078 | 37993 ft | 454 kts | 29° |
| 2026-05-05 18:29 | 46.19500 | -5.77389 | 37983 ft | 454 kts | 29° |
| 2026-05-05 18:29 | 46.24910 | -5.72688 | 37991 ft | 454 kts | 30° |
| 2026-05-05 18:30 | 46.30316 | -5.67982 | 37997 ft | 453 kts | 30° |
| 2026-05-05 18:30 | 46.35723 | -5.63266 | 38004 ft | 453 kts | 30° |
| 2026-05-05 18:31 | 46.41131 | -5.58537 | 37995 ft | 455 kts | 30° |
| 2026-05-05 18:31 | 46.46549 | -5.53789 | 37988 ft | 455 kts | 30° |
| 2026-05-05 18:32 | 46.51975 | -5.49023 | 37982 ft | 456 kts | 30° |
| 2026-05-05 18:32 | 46.57393 | -5.44249 | 37977 ft | 455 kts | 30° |
| 2026-05-05 18:33 | 46.62812 | -5.39469 | 37980 ft | 455 kts | 30° |
| 2026-05-05 18:33 | 46.68223 | -5.34684 | 37971 ft | 455 kts | 30° |
| 2026-05-05 18:34 | 46.73634 | -5.29893 | 37972 ft | 455 kts | 31° |
| 2026-05-05 18:34 | 46.79042 | -5.25091 | 37965 ft | 456 kts | 30° |
| 2026-05-05 18:35 | 46.84428 | -5.20299 | 37961 ft | 457 kts | 30° |
| 2026-05-05 18:35 | 46.89853 | -5.15459 | 37968 ft | 457 kts | 30° |
| 2026-05-05 18:36 | 46.95279 | -5.10605 | 37970 ft | 457 kts | 30° |
| 2026-05-05 18:36 | 47.00701 | -5.05743 | 37964 ft | 457 kts | 31° |
| 2026-05-05 18:37 | 47.06113 | -5.00872 | 37968 ft | 457 kts | 31° |
| 2026-05-05 18:37 | 47.11523 | -4.95998 | 37969 ft | 456 kts | 31° |
| 2026-05-05 18:38 | 47.16928 | -4.91117 | 37959 ft | 456 kts | 31° |
| 2026-05-05 18:38 | 47.22332 | -4.86224 | 37966 ft | 456 kts | 31° |
| 2026-05-05 18:39 | 47.27737 | -4.81319 | 37956 ft | 457 kts | 31° |
| 2026-05-05 18:39 | 47.33144 | -4.76402 | 37955 ft | 457 kts | 31° |
| 2026-05-05 18:40 | 47.38544 | -4.71475 | 37959 ft | 457 kts | 31° |
| 2026-05-05 18:40 | 47.43942 | -4.66539 | 37964 ft | 456 kts | 31° |
| 2026-05-05 18:41 | 47.49339 | -4.61593 | 37956 ft | 457 kts | 31° |
| 2026-05-05 18:41 | 47.54737 | -4.56634 | 37957 ft | 456 kts | 31° |
| 2026-05-05 18:42 | 47.60124 | -4.51672 | 37960 ft | 456 kts | 31° |
| 2026-05-05 18:42 | 47.65507 | -4.46701 | 37963 ft | 456 kts | 31° |
| 2026-05-05 18:43 | 47.70886 | -4.41722 | 37965 ft | 456 kts | 31° |
| 2026-05-05 18:43 | 47.76268 | -4.36729 | 37962 ft | 456 kts | 31° |
| 2026-05-05 18:44 | 47.81691 | -4.31844 | 37958 ft | 456 kts | 26° |
| 2026-05-05 18:44 | 47.87676 | -4.28843 | 37961 ft | 455 kts | 9° |
| 2026-05-05 18:45 | 47.93940 | -4.27419 | 37964 ft | 456 kts | 8° |
| 2026-05-05 18:45 | 48.00233 | -4.26082 | 37972 ft | 457 kts | 8° |
| 2026-05-05 18:46 | 48.06526 | -4.24687 | 37967 ft | 457 kts | 8° |
| 2026-05-05 18:46 | 48.12822 | -4.23246 | 37972 ft | 458 kts | 8° |
| 2026-05-05 18:47 | 48.19084 | -4.21794 | 37987 ft | 459 kts | 9° |
| 2026-05-05 18:47 | 48.25394 | -4.20327 | 37994 ft | 459 kts | 9° |
| 2026-05-05 18:48 | 48.31714 | -4.18856 | 37992 ft | 460 kts | 9° |
| 2026-05-05 18:48 | 48.38037 | -4.17381 | 37987 ft | 460 kts | 8° |
| 2026-05-05 18:49 | 48.44364 | -4.15902 | 37991 ft | 460 kts | 8° |
| 2026-05-05 18:49 | 48.50689 | -4.14420 | 37989 ft | 460 kts | 8° |
| 2026-05-05 18:50 | 48.57016 | -4.12934 | 37994 ft | 460 kts | 9° |
| 2026-05-05 18:50 | 48.63341 | -4.11444 | 37991 ft | 460 kts | 8° |
| 2026-05-05 18:51 | 48.69664 | -4.09951 | 37990 ft | 460 kts | 8° |
| 2026-05-05 18:51 | 48.75991 | -4.08453 | 37987 ft | 460 kts | 8° |
| 2026-05-05 18:52 | 48.82317 | -4.06951 | 37976 ft | 460 kts | 8° |
| 2026-05-05 18:52 | 48.88638 | -4.05447 | 37981 ft | 460 kts | 8° |
| 2026-05-05 18:53 | 48.94960 | -4.03938 | 37977 ft | 460 kts | 8° |
| 2026-05-05 18:53 | 49.01286 | -4.02426 | 37980 ft | 460 kts | 8° |
| 2026-05-05 18:54 | 49.07610 | -4.00909 | 37973 ft | 460 kts | 8° |
| 2026-05-05 18:54 | 49.13930 | -3.99390 | 37977 ft | 460 kts | 8° |
| 2026-05-05 18:55 | 49.20247 | -3.97867 | 37975 ft | 460 kts | 9° |
| 2026-05-05 18:55 | 49.26573 | -3.96338 | 37977 ft | 460 kts | 8° |
| 2026-05-05 18:56 | 49.32905 | -3.94804 | 37980 ft | 461 kts | 8° |
| 2026-05-05 18:56 | 49.39247 | -3.93263 | 37972 ft | 462 kts | 8° |
| 2026-05-05 18:57 | 49.45596 | -3.91717 | 37970 ft | 462 kts | 8° |
| 2026-05-05 18:57 | 49.51906 | -3.90176 | 37968 ft | 462 kts | 8° |
| 2026-05-05 18:58 | 49.58262 | -3.88619 | 37967 ft | 463 kts | 8° |
| 2026-05-05 18:58 | 49.64619 | -3.87059 | 37967 ft | 463 kts | 8° |
| 2026-05-05 18:59 | 49.70976 | -3.85494 | 37968 ft | 463 kts | 8° |
| 2026-05-05 18:59 | 49.74158 | -3.84709 | 37841 ft | 465 kts | 8° |
| 2026-05-05 18:59 | 49.77369 | -3.83917 | 37275 ft | 466 kts | 9° |
| 2026-05-05 19:00 | 49.80556 | -3.83128 | 36650 ft | 463 kts | 9° |
| 2026-05-05 19:00 | 49.83725 | -3.82344 | 36046 ft | 460 kts | 9° |
| 2026-05-05 19:00 | 49.86885 | -3.81560 | 35362 ft | 460 kts | 9° |
| 2026-05-05 19:00 | 49.90049 | -3.80775 | 34661 ft | 460 kts | 9° |
| 2026-05-05 19:01 | 49.93212 | -3.79988 | 33928 ft | 461 kts | 9° |
| 2026-05-05 19:01 | 49.96391 | -3.79196 | 33080 ft | 462 kts | 9° |
| 2026-05-05 19:01 | 49.99563 | -3.78405 | 32294 ft | 462 kts | 8° |
| 2026-05-05 19:01 | 50.02733 | -3.77612 | 31507 ft | 461 kts | 8° |
| 2026-05-05 19:02 | 50.05902 | -3.76817 | 30701 ft | 461 kts | 7° |
| 2026-05-05 19:02 | 50.09069 | -3.76023 | 29862 ft | 461 kts | 7° |
| 2026-05-05 19:02 | 50.12237 | -3.75232 | 28886 ft | 461 kts | 7° |
| 2026-05-05 19:02 | 50.15402 | -3.74440 | 27947 ft | 460 kts | 7° |
| 2026-05-05 19:03 | 50.18562 | -3.73647 | 26984 ft | 460 kts | 7° |
| 2026-05-05 19:03 | 50.21726 | -3.72852 | 25980 ft | 461 kts | 7° |
| 2026-05-05 19:03 | 50.24882 | -3.72056 | 25246 ft | 456 kts | 7° |
| 2026-05-05 19:03 | 50.27995 | -3.71269 | 24531 ft | 450 kts | 7° |
| 2026-05-05 19:04 | 50.30033 | -3.70753 | 24064 ft | 447 kts | 7° |
| 2026-05-05 19:04 | 50.33087 | -3.69981 | 23344 ft | 442 kts | 7° |
| 2026-05-05 19:04 | 50.36104 | -3.69218 | 22537 ft | 437 kts | 7° |
| 2026-05-05 19:04 | 50.39125 | -3.68452 | 21828 ft | 431 kts | 7° |
| 2026-05-05 19:05 | 50.42027 | -3.67720 | 21138 ft | 425 kts | 7° |
| 2026-05-05 19:05 | 50.44937 | -3.67129 | 20442 ft | 419 kts | 5° |
| 2026-05-05 19:05 | 50.47817 | -3.66635 | 19759 ft | 414 kts | 5° |
| 2026-05-05 19:05 | 50.50660 | -3.66143 | 19091 ft | 409 kts | 5° |
| 2026-05-05 19:06 | 50.53472 | -3.65626 | 18431 ft | 404 kts | 6° |
| 2026-05-05 19:06 | 50.56247 | -3.65098 | 17701 ft | 400 kts | 6° |
| 2026-05-05 19:06 | 50.58996 | -3.64568 | 16989 ft | 396 kts | 6° |
| 2026-05-05 19:06 | 50.61712 | -3.64044 | 16313 ft | 391 kts | 5° |
| 2026-05-05 19:07 | 50.64409 | -3.63523 | 15645 ft | 390 kts | 5° |
| 2026-05-05 19:07 | 50.67098 | -3.63006 | 14987 ft | 388 kts | 5° |
| 2026-05-05 19:07 | 50.69780 | -3.62491 | 14330 ft | 390 kts | 6° |
| 2026-05-05 19:07 | 50.72491 | -3.61972 | 13648 ft | 395 kts | 5° |
| 2026-05-05 19:08 | 50.75209 | -3.61450 | 12898 ft | 391 kts | 6° |
| 2026-05-05 19:08 | 50.77878 | -3.60934 | 12516 ft | 378 kts | 5° |
| 2026-05-05 19:08 | 50.80424 | -3.60440 | 12350 ft | 360 kts | 6° |
| 2026-05-05 19:08 | 50.82855 | -3.59968 | 12192 ft | 345 kts | 6° |
| 2026-05-05 19:09 | 50.85186 | -3.59517 | 12054 ft | 331 kts | 6° |
| 2026-05-05 19:09 | 50.87428 | -3.59083 | 11917 ft | 318 kts | 5° |
| 2026-05-05 19:09 | 50.89587 | -3.58666 | 11788 ft | 307 kts | 6° |
| 2026-05-05 19:09 | 50.91672 | -3.58262 | 11663 ft | 296 kts | 6° |
| 2026-05-05 19:10 | 50.93633 | -3.57474 | 11499 ft | 291 kts | 26° |
| 2026-05-05 19:10 | 50.95251 | -3.55579 | 11212 ft | 290 kts | 43° |
| 2026-05-05 19:10 | 50.96647 | -3.53291 | 10910 ft | 288 kts | 44° |
| 2026-05-05 19:10 | 50.98007 | -3.50976 | 10607 ft | 286 kts | 45° |
| 2026-05-05 19:11 | 50.99360 | -3.48678 | 10310 ft | 284 kts | 44° |
| 2026-05-05 19:11 | 51.00705 | -3.46421 | 10115 ft | 277 kts | 44° |
| 2026-05-05 19:11 | 51.02013 | -3.44238 | 9982 ft | 269 kts | 45° |
| 2026-05-05 19:11 | 51.03301 | -3.42098 | 9689 ft | 267 kts | 44° |
| 2026-05-05 19:12 | 51.04583 | -3.39967 | 9397 ft | 266 kts | 44° |
| 2026-05-05 19:12 | 51.06048 | -3.38269 | 9092 ft | 260 kts | 19° |
| 2026-05-05 19:12 | 51.07782 | -3.37622 | 8873 ft | 255 kts | 6° |
| 2026-05-05 19:12 | 51.09542 | -3.37330 | 8596 ft | 253 kts | 4° |
| 2026-05-05 19:13 | 51.11292 | -3.37070 | 8328 ft | 252 kts | 5° |
| 2026-05-05 19:13 | 51.13032 | -3.36793 | 8044 ft | 251 kts | 5° |
| 2026-05-05 19:13 | 51.14764 | -3.36503 | 7775 ft | 250 kts | 5° |
| 2026-05-05 19:13 | 51.16487 | -3.36198 | 7498 ft | 248 kts | 8° |
| 2026-05-05 19:14 | 51.18046 | -3.35172 | 7213 ft | 249 kts | 37° |
| 2026-05-05 19:14 | 51.19262 | -3.33225 | 6976 ft | 248 kts | 49° |
| 2026-05-05 19:14 | 51.20313 | -3.31050 | 6721 ft | 247 kts | 51° |
| 2026-05-05 19:14 | 51.21334 | -3.28841 | 6450 ft | 247 kts | 51° |
| 2026-05-05 19:15 | 51.22348 | -3.26642 | 6171 ft | 246 kts | 51° |
| 2026-05-05 19:15 | 51.23362 | -3.24453 | 5888 ft | 245 kts | 51° |
| 2026-05-05 19:15 | 51.24374 | -3.22281 | 5624 ft | 243 kts | 51° |
| 2026-05-05 19:15 | 51.25382 | -3.20125 | 5360 ft | 242 kts | 51° |
| 2026-05-05 19:16 | 51.26385 | -3.17987 | 5101 ft | 240 kts | 51° |
| 2026-05-05 19:16 | 51.27384 | -3.15859 | 4847 ft | 238 kts | 51° |
| 2026-05-05 19:16 | 51.28369 | -3.13762 | 4699 ft | 232 kts | 51° |
| 2026-05-05 19:16 | 51.29323 | -3.11731 | 4581 ft | 225 kts | 51° |
| 2026-05-05 19:17 | 51.30248 | -3.09762 | 4469 ft | 218 kts | 51° |
| 2026-05-05 19:17 | 51.31140 | -3.07863 | 4375 ft | 210 kts | 51° |
| 2026-05-05 19:17 | 51.32001 | -3.06029 | 4287 ft | 204 kts | 51° |
| 2026-05-05 19:17 | 51.32862 | -3.04197 | 4226 ft | 207 kts | 51° |
| 2026-05-05 19:18 | 51.33723 | -3.02364 | 4018 ft | 206 kts | 51° |
| 2026-05-05 19:18 | 51.34574 | -3.00548 | 3829 ft | 203 kts | 51° |
| 2026-05-05 19:18 | 51.35423 | -2.98736 | 3608 ft | 204 kts | 51° |
| 2026-05-05 19:18 | 51.36271 | -2.96923 | 3400 ft | 203 kts | 51° |
| 2026-05-05 19:19 | 51.37116 | -2.95105 | 3161 ft | 204 kts | 54° |
| 2026-05-05 19:19 | 51.37531 | -2.92977 | 2939 ft | 204 kts | 90° |
| 2026-05-05 19:19 | 51.37439 | -2.90773 | 2786 ft | 192 kts | 81° |
| 2026-05-05 19:19 | 51.37598 | -2.88730 | 2641 ft | 181 kts | 81° |
| 2026-05-05 19:20 | 51.37690 | -2.86720 | 2363 ft | 177 kts | 82° |
| 2026-05-05 19:20 | 51.37761 | -2.84822 | 2144 ft | 162 kts | 82° |
| 2026-05-05 19:20 | 51.37825 | -2.83122 | 1901 ft | 146 kts | 81° |
| 2026-05-05 19:20 | 51.37888 | -2.81533 | 1707 ft | 141 kts | 82° |
| 2026-05-05 19:21 | 51.37950 | -2.79968 | 1503 ft | 142 kts | 81° |
| 2026-05-05 19:21 | 51.38012 | -2.78394 | 1322 ft | 143 kts | 81° |
| 2026-05-05 19:21 | 51.38077 | -2.76779 | 1098 ft | 146 kts | 81° |
| 2026-05-05 19:21 | 51.38136 | -2.75155 | 893 ft | 147 kts | 82° |
| 2026-05-05 19:22 | 51.38203 | -2.73513 | 674 ft | 149 kts | 82° |
| 2026-05-05 19:22 | 51.38269 | -2.71927 | 627 ft | 125 kts | 85° |
| 2026-05-05 19:22 | 51.38306 | -2.70938 | 602 ft | 41 kts | 87° |
| 2026-05-05 19:22 | 51.38348 | -2.70757 | 610 ft | 17 kts | 21° |
| 2026-05-05 19:23 | 51.38426 | -2.70714 | 610 ft | 8 kts | 18° |
| 2026-05-05 19:23 | 51.38467 | -2.70746 | 624 ft | 8 kts | 284° |
| 2026-05-05 19:23 | 51.38466 | -2.70799 | 614 ft | 0 kts | 269° |
| 2026-05-05 19:24 | 51.38466 | -2.70802 | 614 ft | 1 kts | 271° |
| 2026-05-05 19:24 | 51.38479 | -2.70823 | 620 ft | 4 kts | 338° |
| 2026-05-05 19:25 | 51.38512 | -2.70832 | 618 ft | 1 kts | 353° |
| 2026-05-05 19:25 | 51.38522 | -2.70849 | 611 ft | 3 kts | 292° |
| 2026-05-05 19:25 | 51.38525 | -2.70875 | 622 ft | 3 kts | 272° |
| 2026-05-05 19:25 | 51.38525 | -2.70896 | 610 ft | 0 kts | 268° |
| 2026-05-05 19:26 | 51.38525 | -2.70897 | 610 ft | 0 kts | 268° |